Time;durP1;ratioP1;P1;durP2;ratioP2;P2;SDS_P1;SDS_P2;PMS_P1;PMS_P2;Temp;Humidity;BMP_temperature;BMP_pressure;BME280_temperature;BME280_humidity;BME280_pressure;Samples;Min_cycle;Max_cycle;Signal;HPM_P1;HPM_P2
2021/10/14 11:16:40;;;;;;;6.07;3.80;;;14.50;91.80;;;;;;5124308;27;20395;-76
2021/10/14 11:19:06;;;;;;;18.57;17.13;;;14.50;95.50;;;;;;5130378;27;20051;-69
2021/10/14 11:21:32;;;;;;;5.53;3.23;;;14.50;96.00;;;;;;5130074;27;20043;-71
2021/10/14 11:23:59;;;;;;;5.70;2.90;;;14.60;95.80;;;;;;5128174;27;20425;-73
2021/10/14 11:26:32;;;;;;;6.43;2.50;;;14.60;95.40;;;;;;5130176;27;20035;-75
2021/10/14 11:29:17;;;;;;;8.33;2.73;;;14.60;95.10;;;;;;5130005;27;20450;-77
2021/10/14 11:32:02;;;;;;;8.33;3.17;;;14.60;94.30;;;;;;5128742;27;20055;-72
2021/10/14 11:34:28;;;;;;;6.67;2.77;;;14.70;94.30;;;;;;5124165;27;20036;-75
2021/10/14 11:37:05;;;;;;;6.73;3.40;;;14.80;94.50;;;;;;5118458;28;20064;-75
2021/10/14 11:39:38;;;;;;;9.30;3.13;;;14.80;94.10;;;;;;5108795;28;20127;-70
2021/10/14 11:42:17;;;;;;;4.80;2.73;;;15.00;93.70;;;;;;5110142;28;20044;-74
2021/10/14 11:44:45;;;;;;;9.17;3.37;;;15.20;93.60;;;;;;5107292;28;20375;-77
2021/10/14 11:47:14;;;;;;;6.63;3.33;;;15.30;93.30;;;;;;5109751;28;20229;-73
2021/10/14 11:49:41;;;;;;;6.77;3.77;;;15.40;92.30;;;;;;5108857;28;20492;-78
2021/10/14 11:52:08;;;;;;;8.87;3.63;;;15.50;92.20;;;;;;5107413;28;20048;-74
2021/10/14 11:54:35;;;;;;;7.93;3.43;;;15.40;92.00;;;;;;5121525;28;20544;-73
2021/10/14 11:57:03;;;;;;;8.20;4.00;;;15.50;91.70;;;;;;5118743;27;20047;-79
2021/10/14 11:59:30;;;;;;;7.83;4.07;;;15.50;91.40;;;;;;5110427;28;20040;-77
2021/10/14 12:02:17;;;;;;;8.80;4.10;;;15.50;91.00;;;;;;5111415;28;20053;-84
2021/10/14 12:04:53;;;;;;;8.10;4.50;;;15.50;90.30;;;;;;5112099;28;20040;-82
2021/10/14 12:07:21;;;;;;;7.10;3.97;;;15.50;90.70;;;;;;5110238;28;20112;-84
2021/10/14 12:09:47;;;;;;;8.67;4.23;;;15.50;90.70;;;;;;5109122;28;20449;-76
2021/10/14 12:12:17;;;;;;;9.87;4.70;;;15.60;90.70;;;;;;5110687;28;20044;-79
2021/10/14 12:14:43;;;;;;;7.27;4.33;;;15.70;90.40;;;;;;5128428;27;20146;-74
2021/10/14 12:17:16;;;;;;;7.17;4.00;;;15.80;89.70;;;;;;5129301;27;20122;-76
2021/10/14 12:19:51;;;;;;;4.40;3.80;;;15.80;89.90;;;;;;5127893;27;20043;-76
2021/10/14 12:22:20;;;;;;;7.40;4.40;;;15.80;89.60;;;;;;5129220;27;20043;-78
2021/10/14 12:24:53;;;;;;;9.13;5.30;;;15.80;89.90;;;;;;5127488;27;20043;-75
2021/10/14 12:27:18;;;;;;;8.20;4.07;;;15.70;88.90;;;;;;5117051;27;20036;-79
2021/10/14 12:29:46;;;;;;;8.77;4.60;;;15.60;89.10;;;;;;5114452;28;20130;-78
2021/10/14 12:32:13;;;;;;;10.40;4.80;;;15.60;89.30;;;;;;5115178;27;20479;-78
2021/10/14 12:34:51;;;;;;;8.10;4.50;;;15.50;90.00;;;;;;5112531;28;20051;-80
2021/10/14 12:37:32;;;;;;;8.80;4.33;;;15.50;89.20;;;;;;5113567;28;20499;-76
2021/10/14 12:40:19;;;;;;;7.57;4.33;;;15.40;90.00;;;;;;5111216;28;20092;-76
2021/10/14 12:42:55;;;;;;;8.13;5.03;;;15.40;89.40;;;;;;5114516;28;20507;-78
2021/10/14 13:08:40;;;;;;;10.37;4.87;;;15.20;89.80;;;;;;5004405;28;20775;-77
2021/10/14 13:11:08;;;;;;;9.07;4.53;;;15.10;90.50;;;;;;5008778;28;20212;-77
2021/10/14 13:13:35;;;;;;;10.07;5.13;;;15.20;90.90;;;;;;5008280;28;20042;-77
2021/10/14 13:16:02;;;;;;;7.37;4.70;;;15.20;90.70;;;;;;5008357;28;20052;-76
2021/10/14 13:18:28;;;;;;;7.90;4.93;;;15.20;91.00;;;;;;5009852;28;20085;-75
2021/10/14 13:20:55;;;;;;;8.97;4.93;;;15.20;91.10;;;;;;5007923;28;20116;-76
2021/10/14 13:23:22;;;;;;;13.53;5.47;;;15.20;91.10;;;;;;5008839;28;20080;-78
2021/10/14 13:25:51;;;;;;;10.53;4.87;;;15.20;91.20;;;;;;5009411;28;20046;-86
2021/10/14 13:28:17;;;;;;;7.90;5.17;;;15.10;91.20;;;;;;5010249;28;20046;-82
2021/10/14 13:30:42;;;;;;;9.00;5.27;;;15.20;91.40;;;;;;5010076;28;20054;-81
2021/10/14 13:33:08;;;;;;;6.47;4.33;;;15.10;91.40;;;;;;5013373;28;20077;-82
2021/10/14 13:35:38;;;;;;;7.27;5.13;;;15.10;91.60;;;;;;5010062;28;20058;-84
2021/10/14 13:38:04;;;;;;;9.37;5.33;;;15.10;91.60;;;;;;5009525;28;20159;-84
2021/10/14 13:40:30;;;;;;;12.43;5.00;;;15.10;91.60;;;;;;5000267;28;20566;-77
2021/10/14 13:42:56;;;;;;;10.67;5.03;;;15.20;91.50;;;;;;4989547;28;20050;-82
2021/10/14 13:45:23;;;;;;;10.30;4.40;;;15.20;91.30;;;;;;5025119;28;20129;-75
2021/10/14 13:47:48;;;;;;;6.00;4.13;;;15.30;90.90;;;;;;5005727;28;20045;-79
2021/10/14 13:50:14;;;;;;;6.80;4.17;;;15.30;90.80;;;;;;5008971;28;20038;-80
2021/10/14 13:52:39;;;;;;;9.37;4.47;;;15.40;90.60;;;;;;5023650;28;20383;-80
2021/10/14 13:55:06;;;;;;;6.77;4.27;;;15.40;90.00;;;;;;5010132;28;20045;-74
2021/10/14 13:57:35;;;;;;;8.37;4.10;;;15.40;88.70;;;;;;5008841;28;20046;-79
2021/10/14 14:00:07;;;;;;;7.93;3.95;;;15.40;88.50;;;;;;5008329;28;20050;-79
2021/10/14 14:02:35;;;;;;;8.60;4.57;;;15.40;88.30;;;;;;5008926;28;20498;-77
2021/10/14 14:05:00;;;;;;;9.50;4.40;;;15.30;87.90;;;;;;5007416;28;20063;-79
2021/10/14 14:07:26;;;;;;;6.47;4.50;;;15.30;88.40;;;;;;5008031;28;20116;-77
2021/10/14 14:09:51;;;;;;;7.17;3.97;;;15.20;88.30;;;;;;5007245;28;20116;-79
2021/10/14 14:12:17;;;;;;;10.00;4.23;;;15.20;88.70;;;;;;5007244;28;20077;-78
2021/10/14 14:14:42;;;;;;;6.30;4.00;;;15.20;88.90;;;;;;5008442;28;20458;-77
2021/10/14 14:17:08;;;;;;;12.30;4.60;;;15.20;89.10;;;;;;5008074;28;20053;-77
2021/10/14 14:19:33;;;;;;;10.53;5.17;;;15.20;89.50;;;;;;4996700;28;20046;-79
2021/10/14 14:21:59;;;;;;;11.73;5.10;;;15.10;89.90;;;;;;4993927;28;20407;-79
2021/10/14 14:24:25;;;;;;;11.73;5.03;;;15.10;90.00;;;;;;4995562;28;20132;-80
2021/10/14 14:26:50;;;;;;;11.03;5.97;;;15.10;90.30;;;;;;4992712;28;20483;-78
2021/10/14 18:08:40;;;;;;;7.70;4.13;;;13.30;95.50;;;;;;5109048;27;1186161;-80
2021/10/14 18:38:17;;;;;;;7.00;4.43;;;13.80;96.70;;;;;;5129212;28;20055;-78
2021/10/14 18:40:44;;;;;;;7.07;4.23;;;13.90;96.70;;;;;;5128471;28;20096;-79
2021/10/14 18:43:14;;;;;;;7.60;3.70;;;13.90;96.70;;;;;;5110557;28;20071;-78
2021/10/14 18:45:41;;;;;;;7.13;4.00;;;13.90;96.70;;;;;;5110889;28;20363;-78
2021/10/14 18:48:06;;;;;;;7.90;3.60;;;14.00;96.70;;;;;;5128720;28;20100;-84
2021/10/14 18:50:44;;;;;;;9.90;3.97;;;14.00;96.70;;;;;;5133086;28;20043;-87
2021/10/14 18:53:09;;;;;;;7.73;4.13;;;14.10;96.70;;;;;;5131913;28;20086;-76
2021/10/14 18:55:35;;;;;;;8.47;4.03;;;14.10;96.70;;;;;;5129020;28;20074;-75
2021/10/14 18:58:06;;;;;;;7.70;4.23;;;14.20;96.60;;;;;;5129073;28;20494;-76
2021/10/14 19:00:31;;;;;;;8.80;4.40;;;14.20;96.60;;;;;;5127827;28;20051;-74
2021/10/14 19:05:47;;;;;;;8.53;5.30;;;14.20;96.40;;;;;;5128586;28;20043;-74
2021/10/14 19:08:19;;;;;;;9.33;4.77;;;14.20;96.40;;;;;;5109462;28;20146;-73
